createdAt,value
2022-12-15T00:02:10.137Z,46.64
2022-12-15T00:04:55.225Z,46.46
2022-12-15T00:07:40.264Z,46.37
2022-12-15T00:10:25.540Z,46.30
2022-12-15T00:13:10.706Z,46.75
2022-12-15T00:15:55.586Z,46.92
2022-12-15T00:18:40.533Z,46.95
2022-12-15T00:21:25.210Z,46.95
2022-12-15T00:24:10.012Z,46.38
2022-12-15T00:26:54.754Z,46.15
2022-12-15T00:29:39.551Z,46.16
2022-12-15T00:32:24.747Z,46.28
2022-12-15T00:35:09.383Z,46.69
2022-12-15T00:37:54.212Z,46.09
2022-12-15T00:40:20.554Z,45.99
2022-12-15T00:42:49.509Z,46.51
2022-12-15T00:45:16.233Z,46.14
2022-12-15T00:47:42.779Z,46.47
2022-12-15T00:50:27.883Z,46.00
2022-12-15T00:53:13.067Z,46.54
2022-12-15T00:55:57.975Z,46.04
2022-12-15T00:58:43.073Z,46.29
2022-12-15T01:01:28.905Z,46.09
2022-12-15T01:04:14.090Z,46.41
2022-12-15T01:06:58.996Z,46.85
2022-12-15T01:09:44.203Z,47.08
2022-12-15T01:12:29.378Z,46.71
2022-12-15T01:15:14.147Z,47.03
2022-12-15T01:17:59.216Z,46.74
2022-12-15T01:20:25.652Z,47.10
2022-12-15T01:22:54.830Z,46.60
2022-12-15T01:25:24.288Z,46.87
2022-12-15T01:27:51.473Z,46.97
2022-12-15T01:30:21.698Z,46.84
2022-12-15T01:32:48.827Z,47.26
2022-12-15T01:35:15.799Z,46.74
2022-12-15T01:37:42.233Z,47.11
2022-12-15T01:40:34.275Z,46.85
2022-12-15T01:43:00.959Z,47.17
2022-12-15T01:45:27.267Z,46.93
2022-12-15T01:47:57.530Z,47.32
2022-12-15T01:50:26.150Z,47.03
2022-12-15T01:52:54.055Z,47.44
2022-12-15T01:55:25.571Z,47.66
2022-12-15T01:57:56.733Z,47.77
2022-12-15T02:00:23.296Z,47.87
2022-12-15T02:02:50.966Z,47.38
2022-12-15T02:05:18.023Z,47.59
2022-12-15T02:07:44.347Z,47.13
2022-12-15T02:10:11.983Z,47.32
2022-12-15T02:13:01.394Z,47.44
2022-12-15T02:15:38.288Z,47.49
2022-12-15T02:18:49.611Z,48.10
2022-12-15T02:21:24.578Z,47.47
2022-12-15T02:23:54.061Z,47.45
2022-12-15T02:26:58.192Z,47.90
2022-12-15T02:29:35.317Z,47.55
2022-12-15T02:32:28.536Z,47.52
2022-12-15T02:35:04.622Z,47.43
2022-12-15T02:37:36.924Z,47.82
2022-12-15T02:40:05.897Z,47.68
2022-12-15T02:42:35.768Z,47.63
2022-12-15T02:45:07.358Z,47.02
2022-12-15T02:47:38.871Z,47.38
2022-12-15T02:50:23.751Z,47.50
2022-12-15T02:53:23.629Z,47.57
2022-12-15T02:56:11.937Z,47.08
2022-12-15T02:58:56.102Z,47.29
2022-12-15T03:01:26.660Z,47.11
2022-12-15T03:03:55.490Z,46.76
2022-12-15T03:06:24.405Z,47.08
2022-12-15T03:08:50.923Z,46.73
2022-12-15T03:11:17.264Z,47.14
2022-12-15T03:13:43.670Z,46.81
2022-12-15T03:16:10.099Z,46.85
2022-12-15T03:18:36.742Z,47.14
2022-12-15T03:21:03.758Z,47.00
2022-12-15T03:23:30.511Z,47.27
2022-12-15T03:25:57.156Z,47.17
2022-12-15T03:28:23.492Z,47.02
2022-12-15T03:30:50.409Z,47.17
2022-12-15T03:33:17.859Z,46.96
2022-12-15T03:35:44.359Z,46.99
2022-12-15T03:38:10.712Z,46.91
2022-12-15T03:40:37.213Z,46.90
2022-12-15T03:43:03.564Z,47.07
2022-12-15T03:45:30.116Z,46.86
2022-12-15T03:47:57.214Z,46.67
2022-12-15T03:50:26.213Z,46.84
2022-12-15T03:52:57.856Z,47.02
2022-12-15T03:55:24.376Z,46.96
2022-12-15T03:57:51.338Z,47.05
2022-12-15T04:00:19.766Z,46.77
2022-12-15T04:02:46.908Z,46.92
2022-12-15T04:05:19.742Z,47.08
2022-12-15T04:07:46.201Z,46.93
2022-12-15T04:10:13.237Z,46.29
2022-12-15T04:12:43.887Z,46.76
2022-12-15T04:15:11.675Z,46.85
2022-12-15T04:17:38.522Z,46.98
2022-12-15T04:20:10.326Z,46.72
2022-12-15T04:22:41.732Z,46.70
2022-12-15T04:25:32.507Z,47.14
2022-12-15T04:28:18.097Z,46.38
2022-12-15T04:31:14.320Z,46.43
2022-12-15T04:34:03.743Z,46.70
2022-12-15T04:36:49.666Z,46.13
2022-12-15T04:39:34.903Z,46.73
2022-12-15T04:42:20.586Z,46.90
2022-12-15T04:45:07.657Z,46.51
2022-12-15T04:47:52.628Z,46.58
2022-12-15T04:50:37.649Z,46.61
2022-12-15T04:53:34.998Z,46.77
2022-12-15T04:56:21.134Z,46.37
2022-12-15T04:59:06.731Z,46.78
2022-12-15T05:01:53.200Z,46.38
2022-12-15T05:04:38.178Z,46.50
2022-12-15T05:07:23.290Z,46.67
2022-12-15T05:10:14.363Z,46.48
2022-12-15T05:13:02.705Z,46.69
2022-12-15T05:15:48.760Z,46.47
2022-12-15T05:18:33.899Z,46.39
2022-12-15T05:21:18.683Z,46.29
2022-12-15T05:24:03.693Z,46.62
2022-12-15T05:26:52.624Z,46.77
2022-12-15T05:29:38.346Z,46.34
2022-12-15T05:32:04.942Z,46.82
2022-12-15T05:34:34.920Z,46.82
2022-12-15T05:37:03.095Z,46.33
2022-12-15T05:39:29.802Z,47.05
2022-12-15T05:41:56.923Z,46.90
2022-12-15T05:44:24.942Z,46.89
2022-12-15T05:46:51.393Z,46.52
2022-12-15T05:49:19.195Z,46.47
2022-12-15T05:51:47.544Z,46.43
2022-12-15T05:54:16.323Z,46.63
2022-12-15T05:56:43.033Z,46.83
2022-12-15T05:59:09.604Z,46.58
2022-12-15T06:01:36.914Z,46.75
2022-12-15T06:04:04.184Z,46.83
2022-12-15T06:06:30.618Z,47.13
2022-12-15T06:08:57.238Z,47.14
2022-12-15T06:11:23.744Z,47.01
2022-12-15T06:13:50.297Z,46.44
2022-12-15T06:16:21.404Z,46.40
2022-12-15T06:18:51.205Z,46.39
2022-12-15T06:21:19.945Z,46.79
2022-12-15T06:23:46.490Z,46.65
2022-12-15T06:26:20.025Z,46.42
2022-12-15T06:28:47.343Z,46.33
2022-12-15T06:31:14.499Z,46.54
2022-12-15T06:33:41.510Z,46.44
2022-12-15T06:36:10.998Z,46.24
2022-12-15T06:38:37.654Z,46.19
2022-12-15T06:41:05.932Z,46.23
2022-12-15T06:43:33.750Z,46.60
2022-12-15T06:46:02.247Z,46.61
2022-12-15T06:48:28.719Z,46.51
2022-12-15T06:50:56.270Z,46.45
2022-12-15T06:53:24.290Z,46.45
2022-12-15T06:55:51.088Z,46.51
2022-12-15T06:58:18.440Z,46.28
2022-12-15T07:00:46.450Z,46.30
2022-12-15T07:03:16.206Z,46.55
2022-12-15T07:05:44.244Z,46.04
2022-12-15T07:08:11.992Z,46.33
2022-12-15T07:10:40.297Z,46.80
2022-12-15T07:13:08.624Z,46.41
2022-12-15T07:15:36.901Z,46.22
2022-12-15T07:18:03.521Z,46.42
2022-12-15T07:20:31.921Z,46.24
2022-12-15T07:22:58.352Z,46.07
2022-12-15T07:25:24.755Z,46.82
2022-12-15T07:27:51.100Z,46.70
2022-12-15T07:30:17.837Z,46.49
2022-12-15T07:32:50.249Z,46.70
2022-12-15T07:35:17.858Z,46.98
2022-12-15T07:37:44.420Z,46.73
2022-12-15T07:40:11.153Z,46.24
2022-12-15T07:42:37.595Z,46.48
2022-12-15T07:45:05.362Z,46.73
2022-12-15T07:47:32.223Z,46.35
2022-12-15T07:49:58.716Z,46.63
2022-12-15T07:52:25.207Z,47.02
2022-12-15T07:54:51.746Z,46.14
2022-12-15T07:57:18.940Z,46.84
2022-12-15T07:59:45.392Z,46.32
2022-12-15T08:02:12.934Z,46.57
2022-12-15T08:04:40.453Z,47.39
2022-12-15T08:07:07.566Z,47.06
2022-12-15T08:09:34.142Z,47.42
2022-12-15T08:12:00.674Z,46.84
2022-12-15T08:14:28.836Z,46.72
2022-12-15T08:16:55.529Z,47.59
2022-12-15T08:19:26.735Z,47.17
2022-12-15T08:21:53.107Z,47.19
2022-12-15T08:24:19.766Z,47.54
2022-12-15T08:26:50.414Z,47.62
2022-12-15T08:29:49.372Z,47.22
2022-12-15T08:32:04.956Z,47.43
2022-12-15T08:34:31.504Z,47.49
2022-12-15T08:36:58.088Z,47.68
2022-12-15T08:39:24.510Z,47.27
2022-12-15T08:41:51.036Z,47.18
2022-12-15T08:44:17.850Z,47.10
2022-12-15T08:46:44.786Z,47.28
2022-12-15T08:49:14.191Z,47.39
2022-12-15T08:51:43.145Z,47.23
2022-12-15T08:54:09.487Z,47.46
2022-12-15T08:56:36.327Z,46.69
2022-12-15T08:59:03.242Z,47.00
2022-12-15T09:01:32.644Z,47.09
2022-12-15T09:03:59.736Z,46.93
2022-12-15T09:06:29.056Z,47.11
2022-12-15T09:08:57.045Z,47.35
2022-12-15T09:11:24.689Z,47.06
2022-12-15T09:13:51.469Z,47.02
2022-12-15T09:16:19.157Z,46.82
2022-12-15T09:18:48.353Z,46.71
2022-12-15T09:21:15.197Z,46.75
2022-12-15T09:23:42.774Z,46.78
2022-12-15T09:26:11.929Z,46.78
2022-12-15T09:28:39.195Z,46.52
2022-12-15T09:31:11.225Z,46.31
2022-12-15T09:33:38.695Z,46.67
2022-12-15T09:36:06.509Z,46.26
2022-12-15T09:38:39.208Z,46.27
2022-12-15T09:41:20.212Z,46.29
2022-12-15T09:43:52.340Z,46.29
2022-12-15T09:46:42.973Z,46.04
2022-12-15T09:49:36.652Z,46.15
2022-12-15T09:52:19.277Z,45.88
2022-12-15T09:54:46.650Z,46.38
2022-12-15T09:57:19.113Z,46.18
2022-12-15T10:00:05.307Z,46.04
2022-12-15T10:02:44.151Z,46.43
2022-12-15T10:06:14.845Z,45.85
2022-12-15T10:08:42.804Z,45.95
2022-12-15T10:11:24.133Z,45.86
2022-12-15T10:14:06.508Z,45.39
2022-12-15T10:16:40.812Z,45.57
2022-12-15T10:19:14.078Z,45.57
2022-12-15T10:21:40.839Z,45.79
2022-12-15T10:24:31.431Z,45.25
2022-12-15T10:27:22.481Z,45.34
2022-12-15T10:30:02.192Z,45.30
2022-12-15T10:32:31.606Z,45.71
2022-12-15T10:34:58.216Z,45.84
2022-12-15T10:37:24.740Z,45.82
2022-12-15T10:39:52.120Z,45.59
2022-12-15T10:42:23.610Z,45.44
2022-12-15T10:44:53.122Z,45.29
2022-12-15T10:47:31.420Z,45.13
2022-12-15T10:50:38.822Z,44.85
2022-12-15T10:53:09.560Z,44.79
2022-12-15T10:55:37.612Z,45.12
2022-12-15T10:58:20.687Z,44.42
2022-12-15T11:00:50.985Z,45.24
2022-12-15T11:03:26.725Z,44.48
2022-12-15T11:05:55.789Z,45.34
2022-12-15T11:08:25.533Z,44.75
2022-12-15T11:11:16.178Z,44.67
2022-12-15T11:13:43.811Z,44.79
2022-12-15T11:16:18.533Z,44.90
2022-12-15T11:18:48.834Z,45.44
2022-12-15T11:21:35.015Z,44.45
2022-12-15T11:24:04.795Z,44.73
2022-12-15T11:26:56.796Z,44.27
2022-12-15T11:29:29.960Z,44.76
2022-12-15T11:32:01.438Z,45.21
2022-12-15T11:34:38.490Z,44.13
2022-12-15T11:37:42.907Z,43.82
2022-12-15T11:40:36.569Z,43.72
2022-12-15T11:43:27.797Z,43.61
2022-12-15T11:46:00.767Z,44.11
2022-12-15T11:48:48.954Z,43.77
2022-12-15T11:51:21.455Z,43.86
2022-12-15T11:54:07.976Z,43.64
2022-12-15T11:56:50.439Z,43.37
2022-12-15T11:59:39.034Z,43.28
2022-12-15T12:02:20.009Z,43.28
2022-12-15T12:04:56.008Z,43.37
2022-12-15T12:07:49.639Z,42.90
2022-12-15T12:10:29.905Z,42.67
2022-12-15T12:13:21.405Z,42.63
2022-12-15T12:16:24.256Z,42.95
2022-12-15T12:18:57.489Z,42.98
2022-12-15T12:21:35.890Z,43.01
2022-12-15T12:24:21.328Z,43.47
2022-12-15T12:27:00.695Z,42.47
2022-12-15T12:29:37.872Z,42.77
2022-12-15T12:32:13.053Z,42.96
2022-12-15T12:35:31.405Z,42.46
2022-12-15T12:37:51.151Z,42.95
2022-12-15T12:40:31.364Z,43.35
2022-12-15T12:42:59.205Z,43.05
2022-12-15T12:45:50.208Z,42.72
2022-12-15T12:48:25.287Z,42.44
2022-12-15T12:51:10.089Z,43.10
2022-12-15T12:53:36.809Z,42.99
2022-12-15T12:56:03.759Z,42.95
2022-12-15T12:58:45.263Z,42.26
2022-12-15T13:01:30.999Z,42.15
2022-12-15T13:04:12.040Z,42.30
2022-12-15T13:06:38.368Z,42.97
2022-12-15T13:09:16.985Z,42.22
2022-12-15T13:11:50.969Z,42.36
2022-12-15T13:14:31.332Z,42.28
2022-12-15T13:20:01.222Z,42.51
2022-12-15T13:22:38.753Z,42.85
2022-12-15T13:25:35.686Z,42.14
2022-12-15T13:28:17.652Z,42.57
2022-12-15T13:31:21.758Z,42.17
2022-12-15T13:33:51.247Z,42.68
2022-12-15T13:36:39.172Z,42.18
2022-12-15T13:39:17.616Z,42.48
2022-12-15T13:44:54.796Z,42.82
2022-12-15T13:47:25.736Z,42.92
2022-12-15T13:50:02.111Z,42.57
2022-12-15T13:53:16.510Z,42.64
2022-12-15T13:55:28.087Z,42.77
2022-12-15T13:58:01.599Z,42.85
2022-12-15T14:00:28.122Z,43.48
2022-12-15T14:03:06.844Z,42.71
2022-12-15T14:05:33.850Z,42.91
2022-12-15T14:08:03.001Z,43.09
2022-12-15T14:10:41.705Z,43.18
2022-12-15T14:13:17.465Z,43.27
2022-12-15T14:16:15.682Z,42.71
2022-12-15T14:18:42.971Z,42.91
2022-12-15T14:21:27.043Z,42.88
2022-12-15T14:26:41.401Z,42.98
2022-12-15T14:29:09.800Z,43.14
2022-12-15T14:31:37.382Z,43.37
2022-12-15T14:34:08.961Z,43.00
2022-12-15T14:36:38.197Z,43.29
2022-12-15T14:39:08.487Z,43.42
2022-12-15T14:41:40.516Z,43.13
2022-12-15T14:44:31.505Z,42.96
2022-12-15T14:47:08.444Z,43.35
2022-12-15T14:49:42.563Z,43.32
2022-12-15T14:52:25.782Z,43.13
2022-12-15T14:54:57.304Z,43.49
2022-12-15T14:57:25.910Z,43.53
2022-12-15T14:59:53.577Z,43.43
2022-12-15T15:02:30.365Z,43.35
2022-12-15T15:05:07.284Z,43.56
2022-12-15T15:07:35.274Z,43.46
2022-12-15T15:10:04.774Z,43.37
2022-12-15T15:12:43.641Z,43.54
2022-12-15T15:15:19.018Z,43.58
2022-12-15T15:17:51.001Z,43.99
2022-12-15T15:20:18.836Z,43.94
2022-12-15T15:22:46.941Z,43.79
2022-12-15T15:25:39.883Z,43.94
2022-12-15T15:28:16.062Z,44.11
2022-12-15T15:30:48.550Z,43.66
2022-12-15T15:33:16.470Z,44.19
2022-12-15T15:35:44.465Z,44.27
2022-12-15T15:38:19.947Z,44.17
2022-12-15T15:40:55.051Z,43.98
2022-12-15T15:43:22.395Z,44.11
2022-12-15T15:45:50.727Z,44.63
2022-12-15T15:48:28.829Z,44.67
2022-12-15T15:50:55.853Z,44.39
2022-12-15T15:53:24.834Z,44.70
2022-12-15T15:55:55.115Z,44.63
2022-12-15T15:58:21.694Z,44.66
2022-12-15T16:00:48.017Z,44.22
2022-12-15T16:03:15.009Z,44.80
2022-12-15T16:05:42.591Z,44.48
2022-12-15T16:08:15.848Z,44.56
2022-12-15T16:10:45.900Z,44.72
2022-12-15T16:13:12.627Z,44.91
2022-12-15T16:15:39.045Z,44.57
2022-12-15T16:18:05.514Z,44.78
2022-12-15T16:20:33.541Z,44.81
2022-12-15T16:23:05.379Z,44.86
2022-12-15T16:25:46.638Z,44.63
2022-12-15T16:28:17.829Z,44.74
2022-12-15T16:30:45.097Z,45.28
2022-12-15T16:33:13.099Z,44.82
2022-12-15T16:35:41.883Z,45.00
2022-12-15T16:38:21.242Z,45.54
2022-12-15T16:40:47.687Z,45.09
2022-12-15T16:43:19.854Z,44.91
2022-12-15T16:45:48.956Z,44.86
2022-12-15T16:48:16.232Z,45.04
2022-12-15T16:50:46.859Z,45.44
2022-12-15T16:53:19.135Z,45.19
2022-12-15T16:55:47.966Z,45.52
2022-12-15T16:58:17.030Z,45.22
2022-12-15T17:00:44.682Z,45.16
2022-12-15T17:03:18.837Z,45.46
2022-12-15T17:05:49.454Z,45.51
2022-12-15T17:08:20.473Z,45.47
2022-12-15T17:10:48.224Z,45.39
2022-12-15T17:13:45.660Z,46.26
2022-12-15T17:16:14.469Z,45.71
2022-12-15T17:18:42.736Z,45.44
2022-12-15T17:21:15.852Z,45.52
2022-12-15T17:23:45.526Z,45.44
2022-12-15T17:26:27.676Z,45.69
2022-12-15T17:28:58.608Z,45.60
2022-12-15T17:31:30.260Z,45.45
2022-12-15T17:34:02.510Z,45.77
2022-12-15T17:36:29.333Z,45.67
2022-12-15T17:39:01.160Z,45.96
2022-12-15T17:41:58.124Z,45.82
2022-12-15T17:44:32.931Z,45.72
2022-12-15T17:47:01.797Z,45.58
2022-12-15T17:49:34.712Z,45.46
2022-12-15T17:52:04.835Z,45.42
2022-12-15T17:54:31.292Z,45.73
2022-12-15T17:56:57.657Z,45.62
2022-12-15T17:59:24.014Z,46.07
2022-12-15T18:01:50.436Z,46.02
2022-12-15T18:04:17.916Z,46.10
2022-12-15T18:06:44.798Z,45.87
2022-12-15T18:09:17.275Z,45.75
2022-12-15T18:11:46.541Z,45.87
2022-12-15T18:14:18.513Z,46.13
2022-12-15T18:16:45.582Z,45.79
2022-12-15T18:19:15.645Z,45.86
2022-12-15T18:21:44.218Z,45.80
2022-12-15T18:24:15.523Z,45.92
2022-12-15T18:26:42.685Z,45.63
2022-12-15T18:29:19.931Z,45.91
2022-12-15T18:31:50.651Z,46.10
2022-12-15T18:34:21.093Z,45.92
2022-12-15T18:36:47.537Z,46.08
2022-12-15T18:39:19.815Z,46.13
2022-12-15T18:41:46.895Z,45.91
2022-12-15T18:44:25.211Z,46.25
2022-12-15T18:46:53.058Z,45.22
2022-12-15T18:49:22.388Z,45.72
2022-12-15T18:51:49.207Z,46.03
2022-12-15T18:54:23.908Z,46.39
2022-12-15T18:56:51.738Z,46.16
2022-12-15T18:59:19.030Z,46.28
2022-12-15T19:01:47.623Z,46.24
2022-12-15T19:04:14.805Z,46.40
2022-12-15T19:06:41.663Z,45.92
2022-12-15T19:09:15.632Z,46.28
2022-12-15T19:12:02.168Z,46.05
2022-12-15T19:14:40.761Z,45.94
2022-12-15T19:17:29.140Z,46.20
2022-12-15T19:20:18.415Z,45.96
2022-12-15T19:22:47.039Z,46.39
2022-12-15T19:25:25.551Z,46.63
2022-12-15T19:27:59.299Z,46.27
2022-12-15T19:30:29.238Z,46.24
2022-12-15T19:32:56.465Z,46.27
2022-12-15T19:35:22.982Z,46.31
2022-12-15T19:37:50.024Z,46.41
2022-12-15T19:40:23.996Z,46.63
2022-12-15T19:42:53.064Z,46.18
2022-12-15T19:45:27.242Z,46.29
2022-12-15T19:47:54.398Z,46.57
2022-12-15T19:50:24.169Z,46.44
2022-12-15T19:52:54.741Z,46.52
2022-12-15T19:55:25.915Z,46.41
2022-12-15T19:57:52.505Z,46.51
2022-12-15T20:00:22.225Z,46.50
2022-12-15T20:02:51.217Z,46.49
2022-12-15T20:05:19.005Z,46.27
2022-12-15T20:07:46.389Z,46.28
2022-12-15T20:10:31.225Z,46.33
2022-12-15T20:12:58.785Z,46.25
2022-12-15T20:15:28.559Z,46.47
2022-12-15T20:17:56.544Z,46.29
2022-12-15T20:20:24.648Z,46.52
2022-12-15T20:22:54.608Z,46.58
2022-12-15T20:25:26.753Z,46.41
2022-12-15T20:27:53.280Z,46.22
2022-12-15T20:30:26.765Z,46.45
2022-12-15T20:32:53.252Z,46.42
2022-12-15T20:35:21.733Z,46.55
2022-12-15T20:37:48.773Z,46.27
2022-12-15T20:40:18.502Z,46.37
2022-12-15T20:42:44.931Z,46.39
2022-12-15T20:45:19.377Z,46.39
2022-12-15T20:47:47.712Z,46.28
2022-12-15T20:50:46.297Z,46.71
2022-12-15T20:53:25.314Z,46.91
2022-12-15T20:55:53.650Z,46.48
2022-12-15T20:58:20.617Z,47.33
2022-12-15T21:00:48.633Z,46.49
2022-12-15T21:03:31.929Z,46.90
2022-12-15T21:06:00.345Z,46.81
2022-12-15T21:08:29.675Z,46.62
2022-12-15T21:11:01.847Z,46.40
2022-12-15T21:13:31.886Z,46.80
2022-12-15T21:15:58.646Z,46.68
2022-12-15T21:21:21.385Z,46.66
2022-12-15T21:23:48.558Z,46.55
2022-12-15T21:26:19.380Z,46.65
2022-12-15T21:28:47.868Z,46.29
2022-12-15T21:31:15.922Z,46.34
2022-12-15T21:33:42.838Z,46.61
2022-12-15T21:36:18.010Z,46.49
2022-12-15T21:38:47.719Z,46.52
2022-12-15T21:41:20.853Z,46.50
2022-12-15T21:43:47.758Z,46.36
2022-12-15T21:46:27.897Z,46.53
2022-12-15T21:49:14.113Z,46.59
2022-12-15T21:51:46.915Z,46.22
2022-12-15T21:54:27.362Z,46.42
2022-12-15T21:56:56.943Z,46.52
2022-12-15T21:59:26.900Z,46.45
2022-12-15T22:01:55.107Z,46.53
2022-12-15T22:04:26.740Z,46.89
2022-12-15T22:06:53.616Z,46.63
2022-12-15T22:09:21.294Z,46.75
2022-12-15T22:11:50.987Z,46.41
2022-12-15T22:14:33.222Z,46.79
2022-12-15T22:17:01.589Z,46.38
2022-12-15T22:19:28.218Z,46.57
2022-12-15T22:21:55.694Z,46.79
2022-12-15T22:24:22.292Z,45.86
2022-12-15T22:26:50.939Z,46.05
2022-12-15T22:29:20.543Z,46.44
2022-12-15T22:31:53.332Z,46.04
2022-12-15T22:34:24.262Z,46.49
2022-12-15T22:36:51.931Z,45.83
2022-12-15T22:39:19.001Z,46.46
2022-12-15T22:41:48.221Z,46.33
2022-12-15T22:44:27.056Z,46.34
2022-12-15T22:46:56.121Z,46.43
2022-12-15T22:49:28.531Z,46.33
2022-12-15T22:51:55.154Z,46.51
2022-12-15T22:54:24.642Z,46.81
2022-12-15T22:56:55.660Z,46.57
2022-12-15T23:00:03.133Z,47.31
2022-12-15T23:02:35.235Z,46.48
2022-12-15T23:05:02.003Z,46.67
2022-12-15T23:07:28.648Z,46.21
2022-12-15T23:10:14.963Z,46.34
2022-12-15T23:12:41.428Z,46.89
2022-12-15T23:15:27.058Z,46.52
2022-12-15T23:17:53.560Z,46.70
2022-12-15T23:20:21.425Z,46.58
2022-12-15T23:22:47.776Z,46.42
2022-12-15T23:25:14.189Z,46.33
2022-12-15T23:27:40.614Z,46.53
2022-12-15T23:30:08.278Z,46.17
2022-12-15T23:32:34.600Z,46.61
2022-12-15T23:35:00.967Z,45.85
2022-12-15T23:37:27.379Z,46.96
2022-12-15T23:39:53.729Z,46.57
2022-12-15T23:42:20.200Z,46.52
2022-12-15T23:44:48.076Z,46.37
2022-12-15T23:47:14.875Z,46.33
2022-12-15T23:49:41.283Z,46.25
2022-12-15T23:52:08.421Z,46.61
2022-12-15T23:54:34.794Z,46.43
2022-12-15T23:57:02.038Z,46.37
2022-12-15T23:59:28.413Z,46.55
